SWA776 KBOS-KMDW
Flight info
| Callsign | SWA776 |
|---|---|
| Flight time | 2h 22m |
| Altitude | 38000 |
| Route | HYLND7 HYLND CAM Q822 GONZZ Q29 JHW DJB ASHEN PANGG7 |
| Aircraft | B738/M-SADE2E3GIJ4RWZ/LB1D1 |
Departure
| Time | 2026-05-06 12:49 |
|---|---|
| Airport | Boston Logan International Airport (KBOS) |
Arrival
| Time | 2026-05-06 15:12 |
|---|---|
| Airport | Chicago Midway International Airport (KMDW) |
| Time | Latitude | Longitude | Altitude | Speed | Heading |
|---|---|---|---|---|---|
| 2026-05-06 12:20 | 42.36473 | -71.01464 | 23 ft | 0 kts | 342° |
| 2026-05-06 12:37 | 42.36460 | -71.01458 | 26 ft | 4 kts | 344° |
| 2026-05-06 12:37 | 42.36434 | -71.01447 | 28 ft | 4 kts | 339° |
| 2026-05-06 12:38 | 42.36409 | -71.01438 | 26 ft | 4 kts | 3° |
| 2026-05-06 12:38 | 42.36387 | -71.01448 | 24 ft | 4 kts | 56° |
| 2026-05-06 12:38 | 42.36382 | -71.01461 | 23 ft | 1 kts | 68° |
| 2026-05-06 12:38 | 42.36381 | -71.01462 | 23 ft | 1 kts | 68° |
| 2026-05-06 12:42 | 42.36382 | -71.01461 | 23 ft | 1 kts | 68° |
| 2026-05-06 12:42 | 42.36394 | -71.01419 | 24 ft | 8 kts | 65° |
| 2026-05-06 12:42 | 42.36447 | -71.01375 | 25 ft | 10 kts | 22° |
| 2026-05-06 12:43 | 42.36520 | -71.01333 | 23 ft | 13 kts | 24° |
| 2026-05-06 12:43 | 42.36609 | -71.01281 | 26 ft | 14 kts | 20° |
| 2026-05-06 12:43 | 42.36704 | -71.01247 | 26 ft | 14 kts | 13° |
| 2026-05-06 12:43 | 42.36797 | -71.01274 | 25 ft | 15 kts | 332° |
| 2026-05-06 12:44 | 42.36867 | -71.01237 | 25 ft | 11 kts | 36° |
| 2026-05-06 12:44 | 42.36932 | -71.01171 | 24 ft | 12 kts | 40° |
| 2026-05-06 12:44 | 42.37009 | -71.01090 | 24 ft | 16 kts | 26° |
| 2026-05-06 12:44 | 42.37129 | -71.01015 | 21 ft | 22 kts | 26° |
| 2026-05-06 12:45 | 42.37278 | -71.00919 | 21 ft | 26 kts | 25° |
| 2026-05-06 12:45 | 42.37434 | -71.00841 | 21 ft | 23 kts | 20° |
| 2026-05-06 12:45 | 42.37674 | -71.00725 | 26 ft | 13 kts | 18° |
| 2026-05-06 12:46 | 42.37756 | -71.00684 | 28 ft | 11 kts | 33° |
| 2026-05-06 12:46 | 42.37775 | -71.00624 | 28 ft | 7 kts | 103° |
| 2026-05-06 12:46 | 42.37772 | -71.00608 | 28 ft | 0 kts | 105° |
| 2026-05-06 12:47 | 42.37771 | -71.00604 | 28 ft | 2 kts | 105° |
| 2026-05-06 12:47 | 42.37756 | -71.00552 | 26 ft | 9 kts | 119° |
| 2026-05-06 12:47 | 42.37698 | -71.00519 | 29 ft | 8 kts | 199° |
| 2026-05-06 12:48 | 42.37696 | -71.00519 | 29 ft | 0 kts | 199° |
| 2026-05-06 12:48 | 42.37694 | -71.00520 | 29 ft | 2 kts | 199° |
| 2026-05-06 12:48 | 42.37485 | -71.00621 | 26 ft | 70 kts | 199° |
| 2026-05-06 12:49 | 42.36807 | -71.00950 | 27 ft | 134 kts | 200° |
| 2026-05-06 12:49 | 42.35832 | -71.01427 | 264 ft | 169 kts | 200° |
| 2026-05-06 12:49 | 42.34622 | -71.01769 | 862 ft | 191 kts | 185° |
| 2026-05-06 12:49 | 42.33272 | -71.01638 | 1356 ft | 208 kts | 169° |
| 2026-05-06 12:50 | 42.32006 | -71.00436 | 1644 ft | 246 kts | 137° |
| 2026-05-06 12:50 | 42.30951 | -70.98485 | 2067 ft | 268 kts | 127° |
| 2026-05-06 12:50 | 42.30545 | -70.95910 | 2660 ft | 297 kts | 89° |
| 2026-05-06 12:50 | 42.30890 | -70.93134 | 3388 ft | 302 kts | 85° |
| 2026-05-06 12:51 | 42.31368 | -70.90363 | 4152 ft | 303 kts | 79° |
| 2026-05-06 12:51 | 42.31940 | -70.87625 | 4878 ft | 303 kts | 79° |
| 2026-05-06 12:51 | 42.32470 | -70.84959 | 5639 ft | 302 kts | 81° |
| 2026-05-06 12:51 | 42.32974 | -70.82265 | 6258 ft | 307 kts | 81° |
| 2026-05-06 12:52 | 42.33476 | -70.79495 | 6908 ft | 310 kts | 81° |
| 2026-05-06 12:52 | 42.34230 | -70.76849 | 7493 ft | 322 kts | 58° |
| 2026-05-06 12:52 | 42.35840 | -70.74794 | 8122 ft | 328 kts | 27° |
| 2026-05-06 12:52 | 42.37906 | -70.73678 | 8805 ft | 328 kts | 13° |
| 2026-05-06 12:53 | 42.39904 | -70.72881 | 9464 ft | 331 kts | 11° |
| 2026-05-06 12:53 | 42.42070 | -70.72028 | 10144 ft | 335 kts | 11° |
| 2026-05-06 12:53 | 42.44383 | -70.71460 | 10450 ft | 344 kts | 351° |
| 2026-05-06 12:53 | 42.46712 | -70.72164 | 10635 ft | 348 kts | 329° |
| 2026-05-06 12:54 | 42.48936 | -70.73613 | 10807 ft | 365 kts | 326° |
| 2026-05-06 12:54 | 42.51254 | -70.75192 | 10954 ft | 384 kts | 326° |
| 2026-05-06 12:54 | 42.53515 | -70.77169 | 11073 ft | 388 kts | 308° |
| 2026-05-06 12:54 | 42.55150 | -70.80024 | 11503 ft | 383 kts | 296° |
| 2026-05-06 12:55 | 42.56610 | -70.83062 | 12098 ft | 385 kts | 296° |
| 2026-05-06 12:55 | 42.58070 | -70.86116 | 12708 ft | 387 kts | 296° |
| 2026-05-06 12:55 | 42.59544 | -70.89189 | 13316 ft | 390 kts | 296° |
| 2026-05-06 12:55 | 42.61027 | -70.92265 | 13903 ft | 393 kts | 296° |
| 2026-05-06 12:56 | 42.62539 | -70.95387 | 14420 ft | 398 kts | 297° |
| 2026-05-06 12:56 | 42.64070 | -70.98539 | 14995 ft | 400 kts | 297° |
| 2026-05-06 12:56 | 42.65605 | -71.01695 | 15592 ft | 402 kts | 297° |
| 2026-05-06 12:56 | 42.67153 | -71.04880 | 16144 ft | 405 kts | 297° |
| 2026-05-06 12:57 | 42.68713 | -71.08091 | 16706 ft | 408 kts | 297° |
| 2026-05-06 12:57 | 42.70283 | -71.11327 | 17248 ft | 411 kts | 297° |
| 2026-05-06 12:57 | 42.71322 | -71.13473 | 17594 ft | 412 kts | 297° |
| 2026-05-06 12:57 | 42.72907 | -71.16746 | 18123 ft | 415 kts | 298° |
| 2026-05-06 12:58 | 42.74500 | -71.20040 | 18569 ft | 418 kts | 298° |
| 2026-05-06 12:58 | 42.76101 | -71.23354 | 19010 ft | 420 kts | 297° |
| 2026-05-06 12:58 | 42.78043 | -71.27906 | 19528 ft | 416 kts | 285° |
| 2026-05-06 12:58 | 42.78535 | -71.30454 | 19817 ft | 411 kts | 275° |
| 2026-05-06 12:59 | 42.78943 | -71.34257 | 20281 ft | 412 kts | 274° |
| 2026-05-06 12:59 | 42.79352 | -71.38182 | 20696 ft | 415 kts | 274° |
| 2026-05-06 12:59 | 42.79895 | -71.43346 | 21218 ft | 418 kts | 274° |
| 2026-05-06 12:59 | 42.80174 | -71.45965 | 21477 ft | 420 kts | 274° |
| 2026-05-06 13:00 | 42.80600 | -71.49928 | 21842 ft | 423 kts | 275° |
| 2026-05-06 13:00 | 42.81030 | -71.53887 | 22256 ft | 424 kts | 274° |
| 2026-05-06 13:00 | 42.81465 | -71.57873 | 22650 ft | 426 kts | 274° |
| 2026-05-06 13:00 | 42.81901 | -71.61862 | 23064 ft | 427 kts | 274° |
| 2026-05-06 13:01 | 42.82339 | -71.65877 | 23403 ft | 429 kts | 274° |
| 2026-05-06 13:01 | 42.82778 | -71.69910 | 23669 ft | 432 kts | 274° |
| 2026-05-06 13:01 | 42.83218 | -71.73971 | 23952 ft | 433 kts | 274° |
| 2026-05-06 13:01 | 42.83654 | -71.78007 | 24258 ft | 434 kts | 275° |
| 2026-05-06 13:02 | 42.84093 | -71.82083 | 24543 ft | 435 kts | 275° |
| 2026-05-06 13:02 | 42.84528 | -71.86148 | 24801 ft | 437 kts | 275° |
| 2026-05-06 13:02 | 42.84966 | -71.90247 | 25072 ft | 439 kts | 275° |
| 2026-05-06 13:02 | 42.85405 | -71.94370 | 25368 ft | 440 kts | 274° |
| 2026-05-06 13:03 | 42.85845 | -71.98518 | 25614 ft | 441 kts | 274° |
| 2026-05-06 13:03 | 42.86217 | -72.02035 | 25825 ft | 442 kts | 274° |
| 2026-05-06 13:03 | 42.86653 | -72.06169 | 26049 ft | 443 kts | 274° |
| 2026-05-06 13:03 | 42.87089 | -72.10321 | 26296 ft | 442 kts | 274° |
| 2026-05-06 13:04 | 42.87522 | -72.14455 | 26615 ft | 441 kts | 274° |
| 2026-05-06 13:04 | 42.87953 | -72.18579 | 26972 ft | 438 kts | 274° |
| 2026-05-06 13:04 | 42.88380 | -72.22684 | 27322 ft | 436 kts | 274° |
| 2026-05-06 13:04 | 42.88805 | -72.26786 | 27674 ft | 435 kts | 274° |
| 2026-05-06 13:05 | 42.89227 | -72.30878 | 27996 ft | 435 kts | 274° |
| 2026-05-06 13:05 | 42.89640 | -72.34896 | 28346 ft | 433 kts | 274° |
| 2026-05-06 13:05 | 42.90056 | -72.38958 | 28707 ft | 431 kts | 274° |
| 2026-05-06 13:05 | 42.90468 | -72.42997 | 29064 ft | 430 kts | 274° |
| 2026-05-06 13:06 | 42.90884 | -72.47092 | 29432 ft | 429 kts | 274° |
| 2026-05-06 13:06 | 42.91286 | -72.51058 | 29815 ft | 427 kts | 274° |
| 2026-05-06 13:06 | 42.91690 | -72.55057 | 30148 ft | 425 kts | 274° |
| 2026-05-06 13:06 | 42.92091 | -72.59049 | 30452 ft | 424 kts | 274° |
| 2026-05-06 13:07 | 42.92490 | -72.63018 | 30886 ft | 418 kts | 275° |
| 2026-05-06 13:07 | 42.92879 | -72.66903 | 31454 ft | 411 kts | 275° |
| 2026-05-06 13:07 | 42.93264 | -72.70768 | 31787 ft | 410 kts | 275° |
| 2026-05-06 13:07 | 42.93645 | -72.74626 | 31985 ft | 411 kts | 275° |
| 2026-05-06 13:08 | 42.94026 | -72.78487 | 32219 ft | 411 kts | 275° |
| 2026-05-06 13:08 | 42.94406 | -72.82347 | 32575 ft | 408 kts | 275° |
| 2026-05-06 13:08 | 42.94778 | -72.86142 | 32931 ft | 405 kts | 275° |
| 2026-05-06 13:08 | 42.95149 | -72.89938 | 33237 ft | 404 kts | 275° |
| 2026-05-06 13:09 | 42.95519 | -72.93730 | 33553 ft | 402 kts | 275° |
| 2026-05-06 13:09 | 42.95886 | -72.97506 | 34057 ft | 395 kts | 275° |
| 2026-05-06 13:09 | 42.96215 | -73.00890 | 34651 ft | 385 kts | 275° |
| 2026-05-06 13:09 | 42.96565 | -73.04518 | 34907 ft | 385 kts | 275° |
| 2026-05-06 13:10 | 42.96912 | -73.08145 | 34964 ft | 388 kts | 275° |
| 2026-05-06 13:10 | 42.97264 | -73.11826 | 35066 ft | 390 kts | 275° |
| 2026-05-06 13:10 | 42.97613 | -73.15493 | 35331 ft | 389 kts | 275° |
| 2026-05-06 13:10 | 42.97962 | -73.19155 | 35602 ft | 387 kts | 275° |
| 2026-05-06 13:11 | 42.98303 | -73.22743 | 35845 ft | 385 kts | 275° |
| 2026-05-06 13:11 | 42.98651 | -73.26416 | 35990 ft | 386 kts | 275° |
| 2026-05-06 13:11 | 42.98992 | -73.30042 | 36135 ft | 386 kts | 275° |
| 2026-05-06 13:11 | 42.99330 | -73.33674 | 36489 ft | 382 kts | 274° |
| 2026-05-06 13:12 | 42.99514 | -73.37268 | 36782 ft | 379 kts | 271° |
| 2026-05-06 13:12 | 42.99606 | -73.40815 | 36982 ft | 378 kts | 270° |
| 2026-05-06 13:12 | 42.99686 | -73.44412 | 37152 ft | 378 kts | 270° |
| 2026-05-06 13:12 | 42.99763 | -73.47990 | 37317 ft | 378 kts | 270° |
| 2026-05-06 13:13 | 42.99842 | -73.51575 | 37519 ft | 377 kts | 270° |
| 2026-05-06 13:13 | 42.99924 | -73.55150 | 37682 ft | 377 kts | 271° |
| 2026-05-06 13:13 | 43.00002 | -73.58569 | 37807 ft | 377 kts | 271° |
| 2026-05-06 13:14 | 43.00169 | -73.65736 | 37871 ft | 377 kts | 270° |
| 2026-05-06 13:14 | 43.00332 | -73.72819 | 37834 ft | 369 kts | 270° |
| 2026-05-06 13:15 | 43.00487 | -73.79761 | 37831 ft | 364 kts | 270° |
| 2026-05-06 13:15 | 43.00636 | -73.86654 | 37833 ft | 364 kts | 270° |
| 2026-05-06 13:16 | 43.00782 | -73.93606 | 37835 ft | 369 kts | 270° |
| 2026-05-06 13:16 | 43.00920 | -74.00373 | 37829 ft | 372 kts | 270° |
| 2026-05-06 13:17 | 43.01061 | -74.07437 | 37841 ft | 372 kts | 270° |
| 2026-05-06 13:17 | 43.01198 | -74.14490 | 37836 ft | 372 kts | 269° |
| 2026-05-06 13:18 | 43.01331 | -74.21566 | 37830 ft | 373 kts | 270° |
| 2026-05-06 13:18 | 43.01497 | -74.28573 | 37826 ft | 367 kts | 271° |
| 2026-05-06 13:19 | 43.01819 | -74.35512 | 37842 ft | 366 kts | 271° |
| 2026-05-06 13:19 | 43.02147 | -74.42436 | 37817 ft | 363 kts | 271° |
| 2026-05-06 13:20 | 43.02465 | -74.49252 | 37822 ft | 358 kts | 270° |
| 2026-05-06 13:20 | 43.02762 | -74.55978 | 37831 ft | 357 kts | 270° |
| 2026-05-06 13:21 | 43.03056 | -74.62846 | 37825 ft | 363 kts | 270° |
| 2026-05-06 13:21 | 43.03347 | -74.69728 | 37846 ft | 366 kts | 270° |
| 2026-05-06 13:22 | 43.03639 | -74.76743 | 37822 ft | 369 kts | 270° |
| 2026-05-06 13:22 | 43.03928 | -74.83753 | 37824 ft | 370 kts | 270° |
| 2026-05-06 13:23 | 43.04210 | -74.90711 | 37822 ft | 367 kts | 270° |
| 2026-05-06 13:23 | 43.04488 | -74.97671 | 37824 ft | 366 kts | 270° |
| 2026-05-06 13:24 | 43.04740 | -75.04083 | 37824 ft | 364 kts | 270° |
| 2026-05-06 13:24 | 43.05007 | -75.10988 | 37802 ft | 363 kts | 270° |
| 2026-05-06 13:25 | 43.05269 | -75.17849 | 37834 ft | 361 kts | 270° |
| 2026-05-06 13:25 | 43.05527 | -75.24691 | 37835 ft | 360 kts | 270° |
| 2026-05-06 13:26 | 43.05772 | -75.31529 | 37838 ft | 360 kts | 270° |
| 2026-05-06 13:26 | 43.05967 | -75.38347 | 37840 ft | 359 kts | 269° |
| 2026-05-06 13:27 | 43.06152 | -75.45180 | 37853 ft | 359 kts | 269° |
| 2026-05-06 13:27 | 43.06334 | -75.51997 | 37831 ft | 359 kts | 269° |
| 2026-05-06 13:28 | 43.06516 | -75.58830 | 37845 ft | 360 kts | 269° |
| 2026-05-06 13:28 | 43.06695 | -75.65684 | 37832 ft | 360 kts | 269° |
| 2026-05-06 13:29 | 43.06869 | -75.72486 | 37842 ft | 360 kts | 269° |
| 2026-05-06 13:29 | 43.07041 | -75.79339 | 37876 ft | 361 kts | 268° |
| 2026-05-06 13:30 | 43.07208 | -75.86195 | 37856 ft | 362 kts | 268° |
| 2026-05-06 13:30 | 43.07372 | -75.93122 | 37863 ft | 363 kts | 268° |
| 2026-05-06 13:31 | 43.07533 | -76.00036 | 37871 ft | 364 kts | 268° |
| 2026-05-06 13:31 | 43.07682 | -76.06619 | 37863 ft | 364 kts | 268° |
| 2026-05-06 13:32 | 43.07834 | -76.13545 | 37869 ft | 363 kts | 268° |
| 2026-05-06 13:32 | 43.07983 | -76.20480 | 37881 ft | 364 kts | 268° |
| 2026-05-06 13:33 | 43.08126 | -76.27353 | 37866 ft | 365 kts | 268° |
| 2026-05-06 13:33 | 43.08258 | -76.33872 | 37871 ft | 365 kts | 268° |
| 2026-05-06 13:34 | 43.08395 | -76.40856 | 37870 ft | 365 kts | 268° |
| 2026-05-06 13:34 | 43.08527 | -76.47786 | 37872 ft | 365 kts | 268° |
| 2026-05-06 13:35 | 43.08656 | -76.54722 | 37880 ft | 367 kts | 267° |
| 2026-05-06 13:35 | 43.08778 | -76.61700 | 37876 ft | 367 kts | 266° |
| 2026-05-06 13:36 | 43.08076 | -76.68280 | 37880 ft | 363 kts | 255° |
| 2026-05-06 13:36 | 43.06466 | -76.74633 | 37872 ft | 363 kts | 244° |
| 2026-05-06 13:37 | 43.04010 | -76.80614 | 37875 ft | 362 kts | 243° |
| 2026-05-06 13:37 | 43.01509 | -76.86585 | 37888 ft | 361 kts | 243° |
| 2026-05-06 13:38 | 42.99023 | -76.92552 | 37900 ft | 362 kts | 243° |
| 2026-05-06 13:38 | 42.96528 | -76.98550 | 37886 ft | 363 kts | 243° |
| 2026-05-06 13:39 | 42.94139 | -77.04288 | 37881 ft | 363 kts | 243° |
| 2026-05-06 13:39 | 42.92065 | -77.09263 | 37884 ft | 363 kts | 243° |
| 2026-05-06 13:40 | 42.89176 | -77.16276 | 37869 ft | 361 kts | 246° |
| 2026-05-06 13:40 | 42.87375 | -77.21400 | 37883 ft | 360 kts | 247° |
| 2026-05-06 13:41 | 42.85246 | -77.27575 | 37897 ft | 361 kts | 247° |
| 2026-05-06 13:41 | 42.82756 | -77.34765 | 37892 ft | 361 kts | 246° |
| 2026-05-06 13:42 | 42.80951 | -77.39946 | 37903 ft | 361 kts | 246° |
| 2026-05-06 13:42 | 42.78786 | -77.46139 | 37898 ft | 362 kts | 246° |
| 2026-05-06 13:43 | 42.76616 | -77.52328 | 37878 ft | 363 kts | 246° |
| 2026-05-06 13:43 | 42.74437 | -77.58524 | 37848 ft | 362 kts | 247° |
| 2026-05-06 13:44 | 42.72267 | -77.64685 | 37881 ft | 361 kts | 247° |
| 2026-05-06 13:44 | 42.70097 | -77.70834 | 37872 ft | 360 kts | 247° |
| 2026-05-06 13:45 | 42.67927 | -77.76970 | 37871 ft | 359 kts | 247° |
| 2026-05-06 13:45 | 42.64675 | -77.86137 | 37903 ft | 358 kts | 247° |
| 2026-05-06 13:46 | 42.62505 | -77.92235 | 37899 ft | 358 kts | 247° |
| 2026-05-06 13:46 | 42.60347 | -77.98290 | 37902 ft | 359 kts | 247° |
| 2026-05-06 13:47 | 42.58302 | -78.04003 | 37885 ft | 359 kts | 247° |
| 2026-05-06 13:47 | 42.56112 | -78.10122 | 37893 ft | 357 kts | 247° |
| 2026-05-06 13:48 | 42.53943 | -78.16173 | 37888 ft | 357 kts | 247° |
| 2026-05-06 13:48 | 42.51770 | -78.22217 | 37878 ft | 357 kts | 247° |
| 2026-05-06 13:49 | 42.49604 | -78.28230 | 37862 ft | 357 kts | 247° |
| 2026-05-06 13:49 | 42.47419 | -78.34282 | 37859 ft | 358 kts | 247° |
| 2026-05-06 13:50 | 42.45227 | -78.40338 | 37851 ft | 358 kts | 247° |
| 2026-05-06 13:50 | 42.43036 | -78.46379 | 37811 ft | 358 kts | 248° |
| 2026-05-06 13:51 | 42.40836 | -78.52430 | 37847 ft | 357 kts | 248° |
| 2026-05-06 13:51 | 42.38641 | -78.58457 | 37857 ft | 357 kts | 248° |
| 2026-05-06 13:52 | 42.36446 | -78.64471 | 37856 ft | 357 kts | 248° |
| 2026-05-06 13:52 | 42.34238 | -78.70509 | 37870 ft | 358 kts | 248° |
| 2026-05-06 13:53 | 42.32029 | -78.76535 | 37869 ft | 358 kts | 248° |
| 2026-05-06 13:53 | 42.29812 | -78.82570 | 37884 ft | 358 kts | 248° |
| 2026-05-06 13:54 | 42.27602 | -78.88575 | 37876 ft | 359 kts | 248° |
| 2026-05-06 13:54 | 42.25373 | -78.94618 | 37863 ft | 360 kts | 248° |
| 2026-05-06 13:55 | 42.23246 | -79.00372 | 37854 ft | 360 kts | 248° |
| 2026-05-06 13:55 | 42.21011 | -79.06409 | 37887 ft | 360 kts | 247° |
| 2026-05-06 13:56 | 42.18813 | -79.12467 | 37865 ft | 359 kts | 251° |
| 2026-05-06 13:56 | 42.17151 | -79.18788 | 37848 ft | 357 kts | 253° |
| 2026-05-06 13:57 | 42.15533 | -79.25117 | 37831 ft | 357 kts | 253° |
| 2026-05-06 13:57 | 42.13908 | -79.31434 | 37839 ft | 357 kts | 253° |
| 2026-05-06 13:58 | 42.12279 | -79.37729 | 37844 ft | 358 kts | 253° |
| 2026-05-06 13:58 | 42.10631 | -79.44074 | 37865 ft | 356 kts | 253° |
| 2026-05-06 13:59 | 42.08992 | -79.50369 | 37852 ft | 356 kts | 253° |
| 2026-05-06 13:59 | 42.07362 | -79.56613 | 37858 ft | 356 kts | 253° |
| 2026-05-06 14:00 | 42.05709 | -79.62928 | 37864 ft | 355 kts | 253° |
| 2026-05-06 14:00 | 42.04074 | -79.69156 | 37863 ft | 355 kts | 253° |
| 2026-05-06 14:01 | 42.02424 | -79.75428 | 37871 ft | 355 kts | 253° |
| 2026-05-06 14:01 | 42.00772 | -79.81688 | 37890 ft | 356 kts | 253° |
| 2026-05-06 14:02 | 41.99119 | -79.87937 | 37880 ft | 356 kts | 253° |
| 2026-05-06 14:02 | 41.97457 | -79.94205 | 37880 ft | 356 kts | 253° |
| 2026-05-06 14:03 | 41.95837 | -80.00295 | 37855 ft | 355 kts | 253° |
| 2026-05-06 14:03 | 41.94200 | -80.06437 | 37872 ft | 353 kts | 253° |
| 2026-05-06 14:04 | 41.92542 | -80.12641 | 37888 ft | 352 kts | 253° |
| 2026-05-06 14:04 | 41.90883 | -80.18835 | 37896 ft | 352 kts | 253° |
| 2026-05-06 14:05 | 41.89223 | -80.25016 | 37880 ft | 352 kts | 253° |
| 2026-05-06 14:05 | 41.87555 | -80.31212 | 37882 ft | 353 kts | 253° |
| 2026-05-06 14:06 | 41.85883 | -80.37408 | 37880 ft | 354 kts | 253° |
| 2026-05-06 14:06 | 41.84201 | -80.43621 | 37869 ft | 353 kts | 253° |
| 2026-05-06 14:07 | 41.82524 | -80.49802 | 37880 ft | 352 kts | 253° |
| 2026-05-06 14:07 | 41.80847 | -80.55970 | 37837 ft | 353 kts | 253° |
| 2026-05-06 14:08 | 41.79166 | -80.62134 | 37870 ft | 351 kts | 253° |
| 2026-05-06 14:08 | 41.77491 | -80.68263 | 37900 ft | 350 kts | 253° |
| 2026-05-06 14:09 | 41.75807 | -80.74407 | 37899 ft | 351 kts | 253° |
| 2026-05-06 14:09 | 41.74124 | -80.80537 | 37900 ft | 351 kts | 253° |
| 2026-05-06 14:10 | 41.72433 | -80.86678 | 37894 ft | 351 kts | 253° |
| 2026-05-06 14:10 | 41.70740 | -80.92813 | 37921 ft | 351 kts | 253° |
| 2026-05-06 14:11 | 41.69044 | -80.98942 | 37904 ft | 352 kts | 253° |
| 2026-05-06 14:11 | 41.67457 | -81.04663 | 37914 ft | 352 kts | 253° |
| 2026-05-06 14:12 | 41.65767 | -81.10743 | 37915 ft | 352 kts | 253° |
| 2026-05-06 14:12 | 41.64062 | -81.16860 | 37899 ft | 351 kts | 253° |
| 2026-05-06 14:13 | 41.62359 | -81.22953 | 37916 ft | 350 kts | 253° |
| 2026-05-06 14:13 | 41.60652 | -81.29053 | 37949 ft | 350 kts | 253° |
| 2026-05-06 14:14 | 41.58945 | -81.35131 | 37934 ft | 349 kts | 253° |
| 2026-05-06 14:14 | 41.57231 | -81.41223 | 37923 ft | 349 kts | 252° |
| 2026-05-06 14:15 | 41.55520 | -81.47290 | 37932 ft | 349 kts | 252° |
| 2026-05-06 14:15 | 41.53806 | -81.53352 | 37932 ft | 349 kts | 252° |
| 2026-05-06 14:16 | 41.52087 | -81.59418 | 37920 ft | 349 kts | 252° |
| 2026-05-06 14:16 | 41.50366 | -81.65478 | 37922 ft | 349 kts | 252° |
| 2026-05-06 14:17 | 41.48636 | -81.71553 | 37928 ft | 350 kts | 252° |
| 2026-05-06 14:17 | 41.46909 | -81.77602 | 37884 ft | 348 kts | 252° |
| 2026-05-06 14:18 | 41.45187 | -81.83621 | 37905 ft | 347 kts | 252° |
| 2026-05-06 14:18 | 41.43467 | -81.89620 | 37917 ft | 346 kts | 252° |
| 2026-05-06 14:19 | 41.41761 | -81.95557 | 37919 ft | 345 kts | 252° |
| 2026-05-06 14:19 | 41.40115 | -82.01276 | 37916 ft | 345 kts | 252° |
| 2026-05-06 14:20 | 41.38394 | -82.07240 | 37938 ft | 345 kts | 252° |
| 2026-05-06 14:20 | 41.36845 | -82.13265 | 37935 ft | 343 kts | 259° |
| 2026-05-06 14:21 | 41.36165 | -82.19542 | 37943 ft | 343 kts | 265° |
| 2026-05-06 14:21 | 41.36321 | -82.25882 | 37935 ft | 345 kts | 271° |
| 2026-05-06 14:22 | 41.36712 | -82.32254 | 37937 ft | 345 kts | 271° |
| 2026-05-06 14:22 | 41.37102 | -82.38614 | 37933 ft | 345 kts | 271° |
| 2026-05-06 14:23 | 41.37478 | -82.44984 | 37945 ft | 345 kts | 271° |
| 2026-05-06 14:23 | 41.37787 | -82.50332 | 37922 ft | 346 kts | 271° |
| 2026-05-06 14:24 | 41.38209 | -82.57750 | 37932 ft | 346 kts | 271° |
| 2026-05-06 14:24 | 41.38509 | -82.63094 | 37928 ft | 346 kts | 271° |
| 2026-05-06 14:25 | 41.38865 | -82.69488 | 37929 ft | 346 kts | 271° |
| 2026-05-06 14:25 | 41.39214 | -82.75830 | 37938 ft | 346 kts | 271° |
| 2026-05-06 14:26 | 41.39563 | -82.82228 | 37941 ft | 347 kts | 271° |
| 2026-05-06 14:26 | 41.39909 | -82.88649 | 37937 ft | 348 kts | 271° |
| 2026-05-06 14:27 | 41.40254 | -82.95116 | 37935 ft | 348 kts | 271° |
| 2026-05-06 14:27 | 41.40580 | -83.01294 | 37937 ft | 348 kts | 271° |
| 2026-05-06 14:28 | 41.40916 | -83.07733 | 37937 ft | 349 kts | 271° |
| 2026-05-06 14:28 | 41.41249 | -83.14167 | 37936 ft | 349 kts | 271° |
| 2026-05-06 14:29 | 41.41579 | -83.20615 | 37944 ft | 349 kts | 270° |
| 2026-05-06 14:29 | 41.41905 | -83.27080 | 37938 ft | 350 kts | 270° |
| 2026-05-06 14:30 | 41.42229 | -83.33556 | 37944 ft | 350 kts | 270° |
| 2026-05-06 14:30 | 41.42549 | -83.40020 | 37940 ft | 350 kts | 270° |
| 2026-05-06 14:31 | 41.42850 | -83.46191 | 37941 ft | 350 kts | 270° |
| 2026-05-06 14:31 | 41.43114 | -83.51640 | 37945 ft | 350 kts | 270° |
| 2026-05-06 14:32 | 41.43424 | -83.58120 | 37950 ft | 351 kts | 270° |
| 2026-05-06 14:32 | 41.43731 | -83.64616 | 37941 ft | 351 kts | 270° |
| 2026-05-06 14:33 | 41.44035 | -83.71121 | 37943 ft | 351 kts | 270° |
| 2026-05-06 14:33 | 41.44334 | -83.77604 | 37941 ft | 351 kts | 270° |
| 2026-05-06 14:34 | 41.44631 | -83.84116 | 37938 ft | 351 kts | 270° |
| 2026-05-06 14:34 | 41.44924 | -83.90616 | 37941 ft | 351 kts | 270° |
| 2026-05-06 14:35 | 41.45212 | -83.97110 | 37953 ft | 352 kts | 270° |
| 2026-05-06 14:35 | 41.45486 | -84.03350 | 37948 ft | 352 kts | 270° |
| 2026-05-06 14:36 | 41.45768 | -84.09849 | 37895 ft | 347 kts | 270° |
| 2026-05-06 14:36 | 41.45903 | -84.12942 | 37496 ft | 341 kts | 270° |
| 2026-05-06 14:36 | 41.46037 | -84.16056 | 37271 ft | 334 kts | 270° |
| 2026-05-06 14:37 | 41.46167 | -84.19159 | 37016 ft | 338 kts | 270° |
| 2026-05-06 14:37 | 41.46299 | -84.22322 | 36776 ft | 344 kts | 270° |
| 2026-05-06 14:37 | 41.46432 | -84.25533 | 36529 ft | 348 kts | 270° |
| 2026-05-06 14:37 | 41.46564 | -84.28732 | 36277 ft | 347 kts | 270° |
| 2026-05-06 14:38 | 41.46698 | -84.31946 | 36055 ft | 346 kts | 270° |
| 2026-05-06 14:38 | 41.46829 | -84.35137 | 35803 ft | 345 kts | 270° |
| 2026-05-06 14:38 | 41.46960 | -84.38343 | 35573 ft | 345 kts | 270° |
| 2026-05-06 14:38 | 41.47089 | -84.41529 | 35338 ft | 344 kts | 270° |
| 2026-05-06 14:39 | 41.47217 | -84.44713 | 35099 ft | 343 kts | 270° |
| 2026-05-06 14:39 | 41.47343 | -84.47880 | 34863 ft | 342 kts | 270° |
| 2026-05-06 14:39 | 41.47469 | -84.51053 | 34626 ft | 342 kts | 270° |
| 2026-05-06 14:39 | 41.47593 | -84.54214 | 34400 ft | 341 kts | 270° |
| 2026-05-06 14:40 | 41.47717 | -84.57367 | 34165 ft | 341 kts | 270° |
| 2026-05-06 14:40 | 41.47841 | -84.60563 | 33926 ft | 340 kts | 270° |
| 2026-05-06 14:40 | 41.47962 | -84.63706 | 33657 ft | 341 kts | 270° |
| 2026-05-06 14:40 | 41.48082 | -84.66871 | 33428 ft | 343 kts | 270° |
| 2026-05-06 14:41 | 41.48201 | -84.70078 | 33163 ft | 350 kts | 270° |
| 2026-05-06 14:41 | 41.48320 | -84.73347 | 32912 ft | 357 kts | 270° |
| 2026-05-06 14:41 | 41.48442 | -84.76679 | 32650 ft | 361 kts | 270° |
| 2026-05-06 14:41 | 41.48564 | -84.80029 | 32394 ft | 363 kts | 270° |
| 2026-05-06 14:42 | 41.48687 | -84.83397 | 32133 ft | 366 kts | 270° |
| 2026-05-06 14:42 | 41.48810 | -84.86802 | 31890 ft | 368 kts | 270° |
| 2026-05-06 14:42 | 41.48932 | -84.90215 | 31649 ft | 370 kts | 270° |
| 2026-05-06 14:42 | 41.49054 | -84.93663 | 31398 ft | 373 kts | 270° |
| 2026-05-06 14:43 | 41.49176 | -84.97129 | 31153 ft | 375 kts | 270° |
| 2026-05-06 14:43 | 41.49287 | -85.00314 | 30932 ft | 377 kts | 270° |
| 2026-05-06 14:43 | 41.49401 | -85.03626 | 30708 ft | 379 kts | 270° |
| 2026-05-06 14:43 | 41.49522 | -85.07151 | 30486 ft | 381 kts | 270° |
| 2026-05-06 14:44 | 41.49640 | -85.10637 | 30255 ft | 383 kts | 270° |
| 2026-05-06 14:44 | 41.49761 | -85.14236 | 30000 ft | 385 kts | 270° |
| 2026-05-06 14:44 | 41.49881 | -85.17818 | 29726 ft | 387 kts | 270° |
| 2026-05-06 14:45 | 41.50117 | -85.25011 | 29165 ft | 389 kts | 270° |
| 2026-05-06 14:45 | 41.50234 | -85.28620 | 28891 ft | 391 kts | 270° |
| 2026-05-06 14:45 | 41.50351 | -85.32251 | 28619 ft | 391 kts | 270° |
| 2026-05-06 14:45 | 41.50466 | -85.35865 | 28348 ft | 392 kts | 270° |
| 2026-05-06 14:46 | 41.50581 | -85.39517 | 28087 ft | 393 kts | 270° |
| 2026-05-06 14:46 | 41.50693 | -85.43113 | 27846 ft | 394 kts | 270° |
| 2026-05-06 14:46 | 41.50805 | -85.46750 | 27592 ft | 394 kts | 270° |
| 2026-05-06 14:46 | 41.50916 | -85.50404 | 27327 ft | 395 kts | 270° |
| 2026-05-06 14:47 | 41.51028 | -85.54101 | 26421 ft | 396 kts | 270° |
| 2026-05-06 14:47 | 41.51137 | -85.57752 | 25671 ft | 392 kts | 269° |
| 2026-05-06 14:47 | 41.51245 | -85.61365 | 24975 ft | 388 kts | 269° |
| 2026-05-06 14:47 | 41.51350 | -85.64935 | 24308 ft | 382 kts | 269° |
| 2026-05-06 14:48 | 41.51451 | -85.68413 | 23660 ft | 379 kts | 269° |
| 2026-05-06 14:48 | 41.51552 | -85.72000 | 22879 ft | 385 kts | 269° |
| 2026-05-06 14:48 | 41.51652 | -85.75564 | 22179 ft | 382 kts | 269° |
| 2026-05-06 14:48 | 41.51750 | -85.79038 | 21497 ft | 377 kts | 269° |
| 2026-05-06 14:49 | 41.51847 | -85.82502 | 20852 ft | 372 kts | 269° |
| 2026-05-06 14:49 | 41.51941 | -85.85945 | 20209 ft | 369 kts | 269° |
| 2026-05-06 14:49 | 41.52034 | -85.89380 | 19545 ft | 365 kts | 269° |
| 2026-05-06 14:49 | 41.52125 | -85.92773 | 18909 ft | 367 kts | 269° |
| 2026-05-06 14:50 | 41.52213 | -85.96134 | 18271 ft | 367 kts | 269° |
| 2026-05-06 14:50 | 41.52303 | -85.99519 | 17531 ft | 363 kts | 269° |
| 2026-05-06 14:50 | 41.52380 | -86.02494 | 16935 ft | 359 kts | 269° |
| 2026-05-06 14:50 | 41.52465 | -86.05805 | 16272 ft | 355 kts | 269° |
| 2026-05-06 14:51 | 41.52533 | -86.09097 | 15490 ft | 357 kts | 268° |
| 2026-05-06 14:51 | 41.52528 | -86.12406 | 14805 ft | 355 kts | 268° |
| 2026-05-06 14:51 | 41.52500 | -86.15698 | 14160 ft | 352 kts | 268° |
| 2026-05-06 14:51 | 41.52470 | -86.18949 | 13524 ft | 350 kts | 268° |
| 2026-05-06 14:52 | 41.52445 | -86.22190 | 12870 ft | 349 kts | 268° |
| 2026-05-06 14:52 | 41.52423 | -86.25408 | 12279 ft | 348 kts | 269° |
| 2026-05-06 14:52 | 41.52404 | -86.28639 | 11655 ft | 348 kts | 269° |
| 2026-05-06 14:52 | 41.52387 | -86.31855 | 11115 ft | 345 kts | 269° |
| 2026-05-06 14:53 | 41.52369 | -86.34998 | 10997 ft | 333 kts | 269° |
| 2026-05-06 14:53 | 41.52351 | -86.38043 | 10847 ft | 320 kts | 269° |
| 2026-05-06 14:53 | 41.52333 | -86.40957 | 10706 ft | 307 kts | 269° |
| 2026-05-06 14:53 | 41.52314 | -86.43749 | 10575 ft | 295 kts | 269° |
| 2026-05-06 14:54 | 41.52295 | -86.46442 | 10464 ft | 285 kts | 269° |
| 2026-05-06 14:54 | 41.52278 | -86.49032 | 10353 ft | 275 kts | 269° |
| 2026-05-06 14:54 | 41.52259 | -86.51532 | 10233 ft | 265 kts | 269° |
| 2026-05-06 14:54 | 41.52241 | -86.53953 | 10129 ft | 256 kts | 269° |
| 2026-05-06 14:55 | 41.52223 | -86.56299 | 10028 ft | 248 kts | 269° |
| 2026-05-06 14:55 | 41.52205 | -86.58570 | 9887 ft | 244 kts | 269° |
| 2026-05-06 14:55 | 41.52186 | -86.60841 | 9739 ft | 245 kts | 269° |
| 2026-05-06 14:55 | 41.52167 | -86.63130 | 9582 ft | 247 kts | 269° |
| 2026-05-06 14:56 | 41.52148 | -86.65437 | 9435 ft | 250 kts | 269° |
| 2026-05-06 14:56 | 41.52128 | -86.67757 | 9280 ft | 252 kts | 269° |
| 2026-05-06 14:56 | 41.52107 | -86.70099 | 9113 ft | 252 kts | 269° |
| 2026-05-06 14:56 | 41.52086 | -86.72440 | 8952 ft | 253 kts | 269° |
| 2026-05-06 14:57 | 41.52065 | -86.74788 | 8791 ft | 254 kts | 270° |
| 2026-05-06 14:57 | 41.52043 | -86.77140 | 8636 ft | 255 kts | 270° |
| 2026-05-06 14:57 | 41.52020 | -86.79470 | 8467 ft | 252 kts | 270° |
| 2026-05-06 14:57 | 41.51998 | -86.81790 | 8305 ft | 249 kts | 270° |
| 2026-05-06 14:58 | 41.51976 | -86.84088 | 8146 ft | 246 kts | 270° |
| 2026-05-06 14:58 | 41.51952 | -86.86361 | 7988 ft | 246 kts | 270° |
| 2026-05-06 14:58 | 41.51929 | -86.88639 | 7843 ft | 246 kts | 270° |
| 2026-05-06 14:58 | 41.51904 | -86.90921 | 7690 ft | 246 kts | 270° |
| 2026-05-06 14:59 | 41.51880 | -86.93180 | 7536 ft | 247 kts | 270° |
| 2026-05-06 14:59 | 41.51854 | -86.95426 | 7372 ft | 247 kts | 270° |
| 2026-05-06 14:59 | 41.51828 | -86.97707 | 7238 ft | 247 kts | 270° |
| 2026-05-06 14:59 | 41.51801 | -87.00005 | 7076 ft | 248 kts | 270° |
| 2026-05-06 15:00 | 41.51778 | -87.02040 | 6936 ft | 249 kts | 270° |
| 2026-05-06 15:00 | 41.51750 | -87.04330 | 6774 ft | 247 kts | 270° |
| 2026-05-06 15:00 | 41.51723 | -87.06608 | 6617 ft | 244 kts | 270° |
| 2026-05-06 15:00 | 41.51696 | -87.08860 | 6467 ft | 242 kts | 270° |
| 2026-05-06 15:01 | 41.51668 | -87.11113 | 6316 ft | 243 kts | 270° |
| 2026-05-06 15:01 | 41.51638 | -87.13395 | 6148 ft | 243 kts | 270° |
| 2026-05-06 15:01 | 41.51638 | -87.15653 | 6047 ft | 246 kts | 277° |
| 2026-05-06 15:01 | 41.52118 | -87.17816 | 6015 ft | 243 kts | 292° |
| 2026-05-06 15:02 | 41.52544 | -87.19199 | 6010 ft | 242 kts | 292° |
| 2026-05-06 15:02 | 41.53377 | -87.21963 | 6008 ft | 242 kts | 291° |
| 2026-05-06 15:02 | 41.53798 | -87.23371 | 6006 ft | 242 kts | 291° |
| 2026-05-06 15:02 | 41.54417 | -87.25456 | 6004 ft | 242 kts | 291° |
| 2026-05-06 15:03 | 41.55038 | -87.27556 | 6009 ft | 243 kts | 291° |
| 2026-05-06 15:03 | 41.55653 | -87.29642 | 6000 ft | 243 kts | 291° |
| 2026-05-06 15:03 | 41.56460 | -87.32399 | 6015 ft | 242 kts | 291° |
| 2026-05-06 15:03 | 41.56876 | -87.33814 | 6030 ft | 242 kts | 291° |
| 2026-05-06 15:04 | 41.57502 | -87.35904 | 6012 ft | 242 kts | 291° |
| 2026-05-06 15:04 | 41.58105 | -87.37976 | 6032 ft | 239 kts | 291° |
| 2026-05-06 15:04 | 41.58686 | -87.39973 | 5970 ft | 224 kts | 291° |
| 2026-05-06 15:04 | 41.59232 | -87.41845 | 5847 ft | 211 kts | 291° |
| 2026-05-06 15:05 | 41.59767 | -87.43613 | 5741 ft | 199 kts | 292° |
| 2026-05-06 15:05 | 41.60251 | -87.45266 | 5611 ft | 187 kts | 291° |
| 2026-05-06 15:05 | 41.60709 | -87.46870 | 5421 ft | 181 kts | 291° |
| 2026-05-06 15:05 | 41.61152 | -87.48417 | 5286 ft | 178 kts | 291° |
| 2026-05-06 15:06 | 41.61600 | -87.49961 | 5190 ft | 178 kts | 291° |
| 2026-05-06 15:06 | 41.62057 | -87.51517 | 5100 ft | 182 kts | 292° |
| 2026-05-06 15:06 | 41.62735 | -87.52897 | 5133 ft | 182 kts | 314° |
| 2026-05-06 15:06 | 41.63645 | -87.54146 | 4846 ft | 189 kts | 311° |
| 2026-05-06 15:07 | 41.64525 | -87.55426 | 4571 ft | 187 kts | 312° |
| 2026-05-06 15:07 | 41.65435 | -87.56655 | 4286 ft | 188 kts | 316° |
| 2026-05-06 15:07 | 41.66311 | -87.57913 | 4069 ft | 185 kts | 310° |
| 2026-05-06 15:07 | 41.67165 | -87.59251 | 3800 ft | 182 kts | 315° |
| 2026-05-06 15:08 | 41.68065 | -87.60416 | 3556 ft | 181 kts | 314° |
| 2026-05-06 15:08 | 41.68927 | -87.61630 | 3290 ft | 186 kts | 314° |
| 2026-05-06 15:08 | 41.69784 | -87.62836 | 3047 ft | 184 kts | 314° |
| 2026-05-06 15:08 | 41.70632 | -87.64066 | 2825 ft | 177 kts | 314° |
| 2026-05-06 15:09 | 41.71463 | -87.65253 | 2591 ft | 170 kts | 314° |
| 2026-05-06 15:09 | 41.72221 | -87.66325 | 2360 ft | 155 kts | 315° |
| 2026-05-06 15:09 | 41.72903 | -87.67324 | 2135 ft | 137 kts | 317° |
| 2026-05-06 15:09 | 41.73577 | -87.68241 | 1951 ft | 138 kts | 315° |
| 2026-05-06 15:10 | 41.74248 | -87.69184 | 1771 ft | 140 kts | 315° |
| 2026-05-06 15:10 | 41.74915 | -87.70130 | 1568 ft | 139 kts | 313° |
| 2026-05-06 15:10 | 41.75527 | -87.71051 | 1431 ft | 135 kts | 313° |
| 2026-05-06 15:10 | 41.76196 | -87.71866 | 1239 ft | 138 kts | 316° |
| 2026-05-06 15:11 | 41.76860 | -87.72799 | 1036 ft | 140 kts | 309° |
| 2026-05-06 15:11 | 41.77484 | -87.73768 | 883 ft | 143 kts | 312° |
| 2026-05-06 15:11 | 41.78163 | -87.74690 | 653 ft | 141 kts | 312° |
| 2026-05-06 15:11 | 41.78761 | -87.75556 | 627 ft | 104 kts | 314° |
| 2026-05-06 15:12 | 41.79003 | -87.75792 | 632 ft | 21 kts | 345° |
| 2026-05-06 15:12 | 41.79036 | -87.75805 | 628 ft | 0 kts | 343° |
| 2026-05-06 15:14 | 41.79039 | -87.75806 | 628 ft | 2 kts | 343° |
| 2026-05-06 15:15 | 41.79067 | -87.75817 | 631 ft | 7 kts | 343° |
| 2026-05-06 15:15 | 41.79117 | -87.75793 | 630 ft | 10 kts | 59° |
| 2026-05-06 15:15 | 41.79125 | -87.75686 | 628 ft | 13 kts | 95° |
| 2026-05-06 15:15 | 41.79065 | -87.75578 | 628 ft | 17 kts | 135° |
| 2026-05-06 15:16 | 41.78989 | -87.75471 | 636 ft | 8 kts | 131° |
| 2026-05-06 15:16 | 41.78936 | -87.75390 | 628 ft | 15 kts | 131° |
| 2026-05-06 15:16 | 41.78856 | -87.75278 | 630 ft | 18 kts | 138° |
| 2026-05-06 15:16 | 41.78771 | -87.75164 | 627 ft | 18 kts | 133° |
| 2026-05-06 15:17 | 41.78693 | -87.75055 | 627 ft | 14 kts | 134° |
| 2026-05-06 15:17 | 41.78623 | -87.74955 | 628 ft | 15 kts | 134° |
| 2026-05-06 15:17 | 41.78592 | -87.74903 | 631 ft | 1 kts | 114° |
| 2026-05-06 15:17 | 41.78596 | -87.74877 | 628 ft | 5 kts | 64° |
| 2026-05-06 15:18 | 41.78620 | -87.74820 | 631 ft | 7 kts | 91° |
| 2026-05-06 15:18 | 41.78604 | -87.74782 | 632 ft | 5 kts | 129° |
| 2026-05-06 15:18 | 41.78568 | -87.74727 | 628 ft | 11 kts | 135° |
| 2026-05-06 15:18 | 41.78539 | -87.74688 | 631 ft | 3 kts | 134° |
| 2026-05-06 15:19 | 41.78511 | -87.74648 | 632 ft | 9 kts | 134° |
| 2026-05-06 15:19 | 41.78481 | -87.74606 | 628 ft | 0 kts | 133° |
| 2026-05-06 15:19 | 41.78479 | -87.74604 | 628 ft | 2 kts | 133° |
| 2026-05-06 15:19 | 41.78460 | -87.74578 | 634 ft | 0 kts | 137° |
| 2026-05-06 15:20 | 41.78456 | -87.74573 | 631 ft | 2 kts | 137° |
| 2026-05-06 15:20 | 41.78448 | -87.74563 | 633 ft | 1 kts | 133° |
| 2026-05-06 15:20 | 41.78433 | -87.74534 | 631 ft | 6 kts | 121° |
| 2026-05-06 15:20 | 41.78431 | -87.74490 | 628 ft | 4 kts | 70° |
| 2026-05-06 15:21 | 41.78448 | -87.74457 | 633 ft | 6 kts | 70° |
| 2026-05-06 15:21 | 41.78452 | -87.74439 | 631 ft | 0 kts | 71° |
| 2026-05-06 15:21 | 41.78453 | -87.74438 | 630 ft | 1 kts | 71° |
| 2026-05-06 15:22 | 41.78457 | -87.74424 | 632 ft | 0 kts | 70° |
| 2026-05-06 15:22 | 41.78458 | -87.74419 | 634 ft | 0 kts | 70° |
| 2026-05-06 15:23 | 41.78457 | -87.74424 | 632 ft | 0 kts | 70° |